Time;durP1;ratioP1;P1;durP2;ratioP2;P2;SDS_P1;SDS_P2;PMS_P1;PMS_P2;Temp;Humidity;BMP_temperature;BMP_pressure;BME280_temperature;BME280_humidity;BME280_pressure;Samples;Min_cycle;Max_cycle;Signal;HPM_P1;HPM_P2
2023/07/04 04:01:20;;;;;;;7.80;1.50;;;16.30;97.30;;;;;;5584062;23;20511;-89
2023/07/04 04:03:46;;;;;;;1.57;1.47;;;16.30;97.30;;;;;;5006239;28;20424;-90
2023/07/04 04:06:11;;;;;;;5.20;2.80;;;16.30;97.30;;;;;;4992341;28;20232;-89
2023/07/04 04:08:37;;;;;;;4.90;1.60;;;16.30;97.30;;;;;;4992324;28;20205;-90
2023/07/04 04:11:03;;;;;;;1.47;1.40;;;16.30;97.30;;;;;;4987909;28;20580;-91
2023/07/04 04:13:31;;;;;;;2.10;1.97;;;16.40;97.30;;;;;;5015563;23;20229;-88
2023/07/04 04:16:00;;;;;;;5.23;3.10;;;16.40;97.30;;;;;;4994438;28;20197;-90
2023/07/04 04:21:42;;;;;;;3.10;2.53;;;16.40;97.30;;;;;;4974740;28;20883;-89
2023/07/04 04:24:07;;;;;;;2.87;2.70;;;16.40;97.30;;;;;;4961400;23;20493;-70
2023/07/04 04:26:38;;;;;;;2.80;2.03;;;16.50;97.30;;;;;;4972112;28;20785;-69
2023/07/04 04:29:05;;;;;;;1.60;1.50;;;16.50;97.30;;;;;;4973058;28;20473;-69
2023/07/04 04:31:31;;;;;;;1.80;1.70;;;16.50;97.30;;;;;;4959566;28;20494;-67
2023/07/04 04:33:57;;;;;;;2.40;2.20;;;16.50;97.30;;;;;;4951284;29;20466;-71
2023/07/04 04:36:22;;;;;;;1.87;1.50;;;16.60;97.30;;;;;;4945464;29;20966;-69
2023/07/04 04:38:49;;;;;;;1.30;1.20;;;16.60;97.30;;;;;;4948619;29;20195;-70
2023/07/04 04:41:15;;;;;;;4.17;1.60;;;16.60;97.30;;;;;;4947313;28;20203;-71
2023/07/04 04:43:40;;;;;;;4.80;2.63;;;16.70;97.30;;;;;;4949483;29;20858;-71
2023/07/04 04:46:06;;;;;;;1.80;1.70;;;16.70;97.30;;;;;;4932383;29;20301;-71
2023/07/04 04:48:35;;;;;;;1.70;1.67;;;16.80;97.30;;;;;;4949004;28;20183;-69
2023/07/04 04:51:10;;;;;;;4.20;2.10;;;16.80;97.30;;;;;;4949463;28;20218;-69
2023/07/04 04:53:40;;;;;;;5.23;2.60;;;16.80;97.30;;;;;;4949871;29;20878;-70
2023/07/04 04:56:07;;;;;;;2.00;1.73;;;16.90;97.30;;;;;;4948557;29;20427;-69
2023/07/04 04:58:33;;;;;;;9.77;2.43;;;16.90;97.30;;;;;;4951765;28;20523;-70
2023/07/04 05:01:15;;;;;;;2.33;2.13;;;17.00;97.30;;;;;;4950806;28;20546;-69
2023/07/04 05:03:42;;;;;;;5.53;1.60;;;17.00;97.30;;;;;;4950100;28;20217;-69
2023/07/04 05:06:07;;;;;;;1.20;1.10;;;17.00;97.30;;;;;;4948131;29;20482;-71
2023/07/04 05:08:34;;;;;;;4.10;2.47;;;17.10;97.30;;;;;;4948877;29;20422;-71
2023/07/04 05:11:05;;;;;;;2.60;1.93;;;17.10;97.30;;;;;;4949100;28;20230;-70
2023/07/04 05:13:34;;;;;;;4.10;1.70;;;17.20;97.30;;;;;;4960495;28;20419;-71
2023/07/04 05:16:12;;;;;;;5.63;3.10;;;17.20;97.30;;;;;;4949307;29;20437;-69
2023/07/04 05:18:38;;;;;;;3.70;1.30;;;17.30;97.30;;;;;;4949859;29;20435;-70
2023/07/04 05:21:26;;;;;;;2.23;2.00;;;17.30;97.30;;;;;;4951684;28;20431;-73
2023/07/04 05:23:52;;;;;;;3.47;2.30;;;17.40;97.30;;;;;;4943721;29;20467;-78
2023/07/04 05:26:22;;;;;;;4.70;2.83;;;17.40;97.30;;;;;;4948097;29;20434;-69
2023/07/04 05:28:48;;;;;;;1.10;1.00;;;17.50;97.30;;;;;;4939423;28;20431;-70
2023/07/04 05:31:16;;;;;;;5.00;2.73;;;17.50;97.30;;;;;;4941312;29;20546;-70
2023/07/04 05:33:43;;;;;;;1.63;1.50;;;17.60;97.20;;;;;;4950871;28;20222;-70
2023/07/04 05:36:16;;;;;;;5.27;2.20;;;17.60;97.20;;;;;;4950355;29;21000;-85
2023/07/04 05:38:42;;;;;;;2.17;2.00;;;17.60;96.90;;;;;;4951497;28;20461;-71
2023/07/04 05:41:09;;;;;;;2.20;1.93;;;17.70;96.70;;;;;;4950335;28;20887;-71
2023/07/04 05:43:35;;;;;;;3.27;1.87;;;17.70;97.10;;;;;;4944916;28;20436;-71
2023/07/04 05:46:01;;;;;;;3.30;3.10;;;17.80;97.00;;;;;;4949961;29;20441;-71
2023/07/04 05:48:26;;;;;;;1.70;1.67;;;17.80;96.90;;;;;;4946600;29;20230;-70
2023/07/04 05:50:54;;;;;;;6.00;1.80;;;17.90;96.90;;;;;;4949694;28;20199;-70
2023/07/04 05:53:25;;;;;;;2.97;2.20;;;17.90;96.80;;;;;;4948720;28;20195;-69
2023/07/04 05:55:51;;;;;;;2.53;2.20;;;18.00;95.70;;;;;;4948502;29;20458;-73
2023/07/04 05:58:19;;;;;;;3.63;1.50;;;18.00;94.00;;;;;;4950110;28;20794;-71
2023/07/04 06:00:47;;;;;;;4.73;2.70;;;18.10;93.90;;;;;;4948662;28;21028;-71
2023/07/04 06:03:17;;;;;;;3.10;2.07;;;18.10;94.60;;;;;;4950459;28;20434;-70
2023/07/04 06:05:43;;;;;;;5.40;2.80;;;18.20;93.70;;;;;;4950977;28;20407;-70
2023/07/04 06:08:09;;;;;;;1.53;1.43;;;18.20;94.00;;;;;;4950008;29;20927;-70
2023/07/04 06:10:35;;;;;;;1.40;1.30;;;18.30;92.30;;;;;;4949158;28;20511;-74
2023/07/04 06:13:01;;;;;;;1.77;1.73;;;18.30;92.40;;;;;;4949711;29;20640;-73
2023/07/04 06:15:26;;;;;;;2.40;2.20;;;18.40;91.70;;;;;;4949381;29;20203;-72
2023/07/04 06:17:52;;;;;;;1.90;1.80;;;18.40;90.80;;;;;;4949700;29;20568;-73
2023/07/04 06:20:19;;;;;;;2.53;1.97;;;18.40;91.50;;;;;;4949528;28;20195;-70
2023/07/04 06:22:44;;;;;;;13.93;3.00;;;18.50;90.90;;;;;;4950437;28;20171;-72
2023/07/04 06:25:10;;;;;;;3.60;2.03;;;18.50;91.60;;;;;;4946104;29;20481;-71
2023/07/04 06:27:36;;;;;;;1.63;1.53;;;18.50;91.30;;;;;;4950247;28;20183;-71
2023/07/04 06:30:01;;;;;;;2.63;2.33;;;18.60;91.40;;;;;;4950680;28;20231;-72
2023/07/04 06:32:27;;;;;;;3.43;2.20;;;18.60;91.40;;;;;;4949513;29;20257;-71
2023/07/04 06:34:52;;;;;;;2.90;2.27;;;18.60;90.40;;;;;;4950485;28;20683;-73
2023/07/04 06:37:18;;;;;;;7.60;2.43;;;18.70;89.00;;;;;;4970905;28;20210;-70
2023/07/04 06:39:44;;;;;;;1.77;1.70;;;18.70;89.60;;;;;;4950146;28;20183;-80
2023/07/04 06:42:09;;;;;;;5.53;2.90;;;18.80;89.70;;;;;;4949756;28;20199;-69
2023/07/04 06:44:35;;;;;;;3.10;2.53;;;18.80;88.70;;;;;;4950675;28;20190;-69
2023/07/04 06:47:00;;;;;;;1.87;1.77;;;18.90;89.10;;;;;;4949456;29;20667;-72
2023/07/04 06:49:26;;;;;;;2.23;1.80;;;18.90;89.30;;;;;;4946198;28;20308;-71
2023/07/04 06:51:51;;;;;;;12.40;2.00;;;18.90;89.60;;;;;;4948652;28;20211;-75
2023/07/04 06:54:17;;;;;;;2.60;2.17;;;19.00;89.50;;;;;;4947876;29;20195;-70
2023/07/04 06:56:43;;;;;;;3.17;2.20;;;19.00;89.20;;;;;;4948855;29;20187;-70
2023/07/04 06:59:09;;;;;;;2.30;2.00;;;19.10;89.00;;;;;;4950917;28;20178;-70
2023/07/04 07:01:34;;;;;;;6.20;1.70;;;19.10;88.50;;;;;;4946697;28;20451;-70
2023/07/04 07:04:00;;;;;;;4.03;2.00;;;19.10;88.90;;;;;;4949426;28;20453;-69
2023/07/04 07:06:26;;;;;;;1.93;1.90;;;19.10;88.80;;;;;;4948276;28;20214;-70
2023/07/04 07:08:52;;;;;;;1.80;1.33;;;19.10;89.10;;;;;;4950191;28;21209;-72
2023/07/04 07:11:19;;;;;;;2.40;1.57;;;19.20;88.40;;;;;;4950221;28;20457;-70
2023/07/04 07:13:46;;;;;;;1.53;1.43;;;19.20;88.20;;;;;;4951495;28;20603;-71
2023/07/04 07:16:13;;;;;;;1.20;1.10;;;19.30;88.10;;;;;;4968957;28;20494;-72
2023/07/04 07:18:40;;;;;;;3.27;2.17;;;19.30;87.80;;;;;;4953597;28;20469;-73
2023/07/04 07:21:08;;;;;;;1.60;1.50;;;19.40;87.20;;;;;;4954345;28;20942;-82
2023/07/04 07:23:35;;;;;;;2.33;1.73;;;19.40;86.70;;;;;;4952382;29;20476;-72
2023/07/04 07:26:02;;;;;;;1.63;1.60;;;19.50;86.90;;;;;;4945289;29;20426;-79
2023/07/04 07:28:29;;;;;;;2.13;1.60;;;19.60;86.90;;;;;;4952507;29;20489;-75
2023/07/04 07:31:09;;;;;;;2.00;1.37;;;19.70;87.20;;;;;;4953535;28;20434;-74
2023/07/04 07:33:36;;;;;;;2.37;1.60;;;19.80;85.90;;;;;;4952499;29;20428;-73
2023/07/04 07:36:30;;;;;;;25.03;3.27;;;19.80;86.40;;;;;;4952394;29;20934;-73
2023/07/04 07:38:56;;;;;;;3.00;2.80;;;19.90;86.30;;;;;;4952129;29;20462;-73
2023/07/04 07:41:26;;;;;;;2.03;1.90;;;19.90;86.60;;;;;;4952708;28;20801;-71
2023/07/04 07:43:52;;;;;;;1.93;1.30;;;20.00;86.00;;;;;;4953827;28;20426;-71
2023/07/04 07:46:18;;;;;;;12.90;2.63;;;20.00;85.90;;;;;;4954113;28;20473;-71
2023/07/04 07:48:45;;;;;;;2.30;1.83;;;20.00;85.80;;;;;;4952189;29;20451;-70
2023/07/04 07:51:12;;;;;;;5.37;3.10;;;20.00;86.30;;;;;;4954037;28;20497;-69
2023/07/04 07:53:39;;;;;;;2.10;1.37;;;20.00;86.60;;;;;;4952290;29;20510;-72
2023/07/04 07:56:06;;;;;;;2.90;1.67;;;20.00;86.10;;;;;;4954253;28;20506;-71
2023/07/04 07:58:32;;;;;;;1.70;1.57;;;20.10;84.80;;;;;;4953589;28;21009;-72
2023/07/04 08:00:58;;;;;;;1.87;1.10;;;20.10;84.50;;;;;;4951054;28;20458;-68
2023/07/04 08:03:24;;;;;;;26.67;2.37;;;20.20;84.90;;;;;;4953085;28;20429;-71
2023/07/04 08:05:49;;;;;;;7.60;2.70;;;20.30;85.20;;;;;;4951322;29;20434;-69
2023/07/04 08:08:15;;;;;;;8.93;1.53;;;20.40;85.00;;;;;;4951940;29;20192;-69
2023/07/04 08:10:42;;;;;;;1.70;1.53;;;20.50;84.70;;;;;;4944864;28;20747;-74
2023/07/04 08:13:09;;;;;;;2.40;1.70;;;20.50;84.20;;;;;;4951608;29;20186;-71
2023/07/04 08:15:34;;;;;;;6.77;2.57;;;20.50;83.80;;;;;;4949941;29;20954;-73
2023/07/04 08:18:03;;;;;;;4.93;2.43;;;20.60;84.20;;;;;;4953196;29;21014;-72
2023/07/04 08:20:29;;;;;;;1.73;1.40;;;20.60;84.00;;;;;;4951620;28;20195;-67
2023/07/04 08:22:55;;;;;;;1.07;1.03;;;20.70;83.90;;;;;;4952891;28;20414;-69
2023/07/04 08:25:20;;;;;;;1.60;1.50;;;20.70;82.80;;;;;;4949985;28;20234;-72
2023/07/04 08:27:46;;;;;;;6.00;1.57;;;20.70;83.20;;;;;;4952160;28;20269;-68
2023/07/04 08:30:11;;;;;;;1.47;1.37;;;20.80;83.80;;;;;;4953005;28;20187;-76
2023/07/04 08:32:37;;;;;;;2.13;1.73;;;20.90;82.60;;;;;;4951318;29;20593;-69
2023/07/04 08:35:03;;;;;;;1.60;1.57;;;20.90;82.30;;;;;;4951615;29;20202;-70
2023/07/04 08:37:28;;;;;;;2.43;1.40;;;21.00;82.00;;;;;;4969954;28;20716;-74
2023/07/04 08:39:55;;;;;;;2.97;1.70;;;21.00;82.40;;;;;;4952846;28;20485;-71
2023/07/04 08:42:24;;;;;;;4.60;1.63;;;21.00;82.80;;;;;;4952673;28;20289;-69
2023/07/04 08:44:52;;;;;;;2.30;1.50;;;21.00;82.20;;;;;;4950377;29;20426;-69
2023/07/04 08:47:25;;;;;;;15.00;2.40;;;21.00;82.70;;;;;;4951031;28;20441;-69
2023/07/04 08:50:00;;;;;;;4.87;2.93;;;20.90;82.50;;;;;;4952390;28;20427;-72
2023/07/04 08:52:52;;;;;;;1.37;1.27;;;20.90;82.90;;;;;;4951276;28;21014;-71
2023/07/04 08:55:18;;;;;;;2.00;1.47;;;20.90;83.00;;;;;;4946300;29;20498;-67
2023/07/04 08:57:57;;;;;;;2.53;1.80;;;20.90;82.70;;;;;;4950895;28;20510;-70
2023/07/04 09:00:36;;;;;;;2.47;1.77;;;20.80;82.90;;;;;;4951267;28;20497;-71
2023/07/04 09:03:25;;;;;;;5.00;2.67;;;20.80;83.10;;;;;;4951886;28;20445;-69
2023/07/04 09:06:30;;;;;;;3.73;2.47;;;20.90;83.60;;;;;;4951121;29;20449;-67
2023/07/04 09:09:17;;;;;;;1.63;1.50;;;21.00;82.60;;;;;;4948031;29;21034;-72
2023/07/04 09:11:43;;;;;;;2.50;2.17;;;21.00;82.00;;;;;;4947917;28;20459;-74
2023/07/04 09:14:36;;;;;;;1.20;1.10;;;21.10;82.30;;;;;;4950420;29;20617;-71
2023/07/04 09:17:12;;;;;;;2.30;1.50;;;21.10;82.30;;;;;;4949714;29;20254;-76
2023/07/04 09:19:43;;;;;;;2.63;2.43;;;21.20;82.10;;;;;;4951227;28;20454;-74
2023/07/04 09:22:09;;;;;;;1.57;1.47;;;21.30;80.90;;;;;;4956771;28;20458;-71
2023/07/04 09:24:35;;;;;;;3.20;1.90;;;21.40;82.00;;;;;;4951336;28;20473;-71
2023/07/04 09:27:02;;;;;;;2.13;1.80;;;21.50;81.70;;;;;;4946246;28;20703;-70
2023/07/04 09:29:28;;;;;;;1.57;1.40;;;21.70;80.10;;;;;;4946239;28;20439;-72
2023/07/04 09:32:00;;;;;;;1.70;1.70;;;21.80;79.80;;;;;;4943354;28;20455;-85
2023/07/04 09:34:47;;;;;;;2.83;2.57;;;21.80;78.50;;;;;;4929148;29;20306;-69
2023/07/04 09:37:18;;;;;;;2.53;1.70;;;21.90;79.10;;;;;;4941329;29;20502;-74
2023/07/04 09:39:50;;;;;;;1.20;1.00;;;21.80;79.30;;;;;;4957614;28;20967;-71
2023/07/04 09:42:18;;;;;;;2.20;1.63;;;21.80;80.10;;;;;;4963786;28;20809;-72
2023/07/04 09:44:45;;;;;;;2.37;2.17;;;22.00;80.30;;;;;;4961443;28;20429;-73
2023/07/04 09:47:28;;;;;;;10.80;1.50;;;22.10;79.70;;;;;;4951498;28;20792;-76
2023/07/04 09:50:30;;;;;;;3.20;2.10;;;22.30;78.40;;;;;;4948289;28;20439;-71
2023/07/04 09:53:09;;;;;;;3.33;1.57;;;22.40;78.20;;;;;;4941989;29;20533;-74
2023/07/04 09:55:39;;;;;;;11.87;2.90;;;22.50;77.40;;;;;;4947954;29;20974;-73
2023/07/04 09:58:23;;;;;;;3.73;1.60;;;22.60;77.10;;;;;;4951211;28;20435;-70
2023/07/04 10:01:16;;;;;;;3.73;1.80;;;22.70;77.20;;;;;;4935457;29;20449;-83
2023/07/04 10:03:45;;;;;;;3.53;1.73;;;22.80;76.20;;;;;;4951534;28;20511;-74
2023/07/04 10:06:12;;;;;;;1.87;1.80;;;22.90;76.80;;;;;;4946556;28;20470;-76
2023/07/04 10:08:58;;;;;;;2.07;1.93;;;23.00;76.80;;;;;;4947678;29;20422;-69
2023/07/04 10:11:26;;;;;;;1.57;1.20;;;23.10;75.10;;;;;;4940433;28;20451;-70
2023/07/04 10:14:00;;;;;;;6.57;2.90;;;23.10;75.70;;;;;;4931023;29;20483;-74
2023/07/04 10:16:26;;;;;;;3.80;1.53;;;23.20;75.10;;;;;;4942873;29;20427;-70
2023/07/04 10:19:15;;;;;;;2.57;1.90;;;23.20;76.20;;;;;;4948624;28;20668;-71
2023/07/04 10:21:50;;;;;;;2.67;2.00;;;23.30;75.80;;;;;;4948921;28;20808;-75
2023/07/04 10:24:21;;;;;;;9.30;4.00;;;23.40;75.80;;;;;;4948316;28;20497;-81
2023/07/04 10:27:13;;;;;;;2.20;1.90;;;23.50;74.50;;;;;;4948770;29;20781;-81
2023/07/04 10:29:46;;;;;;;2.30;2.03;;;23.50;75.10;;;;;;4945269;29;20442;-73
2023/07/04 10:32:15;;;;;;;4.60;1.73;;;23.70;75.20;;;;;;4926145;29;20451;-77
2023/07/04 10:34:43;;;;;;;5.40;2.37;;;23.80;74.80;;;;;;4951687;28;20526;-71
2023/07/04 10:37:48;;;;;;;4.43;1.80;;;23.80;74.60;;;;;;4964444;28;20510;-73
2023/07/04 10:40:15;;;;;;;7.73;2.83;;;23.90;75.70;;;;;;4927767;29;20437;-78
2023/07/04 10:42:55;;;;;;;8.27;3.10;;;24.10;75.30;;;;;;4941169;29;20495;-71
2023/07/04 10:45:23;;;;;;;4.17;2.53;;;24.20;74.20;;;;;;4946810;29;20445;-72
2023/07/04 10:47:54;;;;;;;2.93;1.93;;;24.30;72.90;;;;;;4947167;28;20431;-74
2023/07/04 10:50:25;;;;;;;2.37;2.13;;;24.20;72.10;;;;;;4948546;28;20423;-69
2023/07/04 10:52:51;;;;;;;5.60;3.67;;;24.00;71.80;;;;;;4943417;29;20459;-70
2023/07/04 10:55:22;;;;;;;2.40;1.90;;;24.00;72.50;;;;;;4947063;29;20581;-70
2023/07/04 10:57:59;;;;;;;3.07;1.70;;;24.00;72.30;;;;;;4938283;29;20194;-71
2023/07/04 11:00:39;;;;;;;5.90;2.40;;;24.00;72.90;;;;;;4948790;28;20454;-70
2023/07/04 11:03:12;;;;;;;3.30;2.00;;;24.00;73.20;;;;;;4947478;28;20807;-75
2023/07/04 11:05:44;;;;;;;4.03;1.63;;;24.00;72.50;;;;;;4948796;28;20836;-68
2023/07/04 11:08:19;;;;;;;3.90;2.07;;;23.90;73.20;;;;;;4925697;29;20454;-69
2023/07/04 11:10:56;;;;;;;2.30;2.10;;;24.00;74.00;;;;;;4932615;29;20450;-73
2023/07/04 11:13:24;;;;;;;1.70;1.60;;;24.20;73.50;;;;;;4964678;28;20793;-69
2023/07/04 11:15:58;;;;;;;3.73;1.87;;;24.30;73.30;;;;;;4949084;28;20844;-70
2023/07/04 11:18:34;;;;;;;1.50;1.40;;;24.30;72.60;;;;;;4947984;28;20426;-69
2023/07/04 11:21:16;;;;;;;3.40;2.67;;;24.20;73.30;;;;;;4948626;28;20452;-69
2023/07/04 11:24:10;;;;;;;2.40;2.10;;;24.10;73.30;;;;;;4943455;28;20506;-70
2023/07/04 11:26:55;;;;;;;4.30;1.90;;;24.20;73.70;;;;;;4931916;29;20816;-69
2023/07/04 11:29:21;;;;;;;3.43;2.33;;;24.30;73.70;;;;;;4946605;29;20426;-71
2023/07/04 11:32:02;;;;;;;2.50;2.23;;;24.40;72.40;;;;;;4949850;28;20489;-78
2023/07/04 11:34:48;;;;;;;1.43;1.43;;;24.40;71.20;;;;;;4948844;29;20481;-75
2023/07/04 11:37:23;;;;;;;18.67;2.80;;;24.50;71.50;;;;;;4950735;28;20459;-70
2023/07/04 11:39:53;;;;;;;3.57;1.63;;;24.60;70.80;;;;;;4951562;28;20937;-72
2023/07/04 11:42:22;;;;;;;8.43;2.40;;;24.60;70.40;;;;;;4947081;28;20450;-73
2023/07/04 11:44:58;;;;;;;5.10;2.20;;;24.70;70.40;;;;;;4946889;28;20423;-75
2023/07/04 11:47:34;;;;;;;2.10;1.70;;;24.80;70.10;;;;;;4944187;29;20426;-80
2023/07/04 11:50:06;;;;;;;6.73;2.80;;;24.90;69.60;;;;;;4967753;23;20429;-67
2023/07/04 11:52:33;;;;;;;2.70;2.13;;;25.00;68.40;;;;;;4920597;29;20486;-67
2023/07/04 11:55:07;;;;;;;5.23;2.37;;;25.00;67.40;;;;;;4929393;28;20470;-70
2023/07/04 11:58:07;;;;;;;2.73;2.53;;;25.10;67.00;;;;;;4941638;28;20434;-71
2023/07/04 12:00:38;;;;;;;6.53;2.90;;;25.10;67.80;;;;;;4936781;29;20445;-69
2023/07/04 12:03:16;;;;;;;4.77;2.73;;;25.10;67.80;;;;;;4924292;28;20442;-68
2023/07/04 12:05:42;;;;;;;6.43;2.87;;;25.20;69.10;;;;;;4920951;29;20968;-69
2023/07/04 12:08:24;;;;;;;4.50;2.60;;;25.30;68.40;;;;;;4928446;29;20514;-70
2023/07/04 12:10:50;;;;;;;8.97;3.40;;;25.40;67.70;;;;;;4918769;29;20459;-69
2023/07/04 12:13:21;;;;;;;4.53;2.30;;;25.40;67.90;;;;;;4933003;29;20788;-70
2023/07/04 12:15:49;;;;;;;4.20;2.23;;;25.40;67.40;;;;;;4936910;29;20455;-72
2023/07/04 12:18:28;;;;;;;6.80;3.37;;;25.40;68.20;;;;;;4914699;29;20483;-65
2023/07/04 12:20:56;;;;;;;2.27;1.90;;;25.40;68.40;;;;;;4944271;28;20446;-68
2023/07/04 12:23:26;;;;;;;5.17;2.53;;;25.30;68.50;;;;;;4922956;29;20936;-69
2023/07/04 12:25:55;;;;;;;5.40;2.60;;;25.30;68.40;;;;;;4925812;29;20427;-68
2023/07/04 12:28:26;;;;;;;3.00;2.43;;;25.30;68.90;;;;;;4919520;29;20483;-68
2023/07/04 12:31:01;;;;;;;7.73;2.87;;;25.40;69.00;;;;;;4931227;29;20690;-70
2023/07/04 12:33:35;;;;;;;5.00;2.93;;;25.40;68.90;;;;;;4948035;28;20515;-71
2023/07/04 12:36:06;;;;;;;4.57;2.87;;;25.50;69.10;;;;;;4935602;28;20501;-78
2023/07/04 12:38:33;;;;;;;4.30;3.10;;;25.60;68.80;;;;;;4931360;29;20428;-69
2023/07/04 12:41:00;;;;;;;7.90;3.87;;;25.70;68.70;;;;;;4931731;29;20850;-69
2023/07/04 12:43:30;;;;;;;3.73;1.90;;;25.80;67.60;;;;;;4919347;29;20424;-69
2023/07/04 12:46:18;;;;;;;4.60;3.40;;;25.90;68.10;;;;;;4933182;29;20848;-69
2023/07/04 12:48:46;;;;;;;4.60;2.03;;;25.90;67.30;;;;;;4928391;29;20828;-69
2023/07/04 12:51:19;;;;;;;2.80;2.53;;;26.00;68.50;;;;;;4942179;28;20758;-73
2023/07/04 12:53:46;;;;;;;2.53;2.33;;;26.00;67.40;;;;;;4942238;29;20426;-67
2023/07/04 12:56:13;;;;;;;6.23;2.33;;;26.10;67.40;;;;;;4929397;28;20435;-72
2023/07/04 12:58:43;;;;;;;7.70;3.80;;;26.10;67.90;;;;;;4931707;29;20425;-69
2023/07/04 13:01:10;;;;;;;4.03;1.90;;;26.10;68.20;;;;;;4924383;29;20531;-69
2023/07/04 13:03:37;;;;;;;14.20;2.43;;;26.10;68.20;;;;;;4927860;29;20460;-69
2023/07/04 13:06:08;;;;;;;4.67;2.70;;;26.10;67.50;;;;;;4922941;29;20507;-77
2023/07/04 13:08:44;;;;;;;3.80;3.10;;;25.90;67.60;;;;;;4927384;29;20872;-74
2023/07/04 13:11:09;;;;;;;6.73;2.83;;;25.80;67.50;;;;;;4932615;28;20939;-72
2023/07/04 13:13:39;;;;;;;5.70;2.90;;;25.80;68.20;;;;;;4928189;29;20800;-69
2023/07/04 13:16:14;;;;;;;2.43;1.77;;;25.70;67.50;;;;;;4936716;29;20668;-70
2023/07/04 13:18:43;;;;;;;4.83;2.30;;;25.70;68.90;;;;;;4930906;29;20425;-68
2023/07/04 13:21:10;;;;;;;10.33;4.70;;;25.90;68.30;;;;;;4923642;29;20443;-72
2023/07/04 13:23:38;;;;;;;5.80;3.27;;;26.10;68.50;;;;;;4945639;28;20514;-70
2023/07/04 13:26:16;;;;;;;3.40;2.67;;;26.10;67.80;;;;;;4931306;29;20419;-69
2023/07/04 13:28:49;;;;;;;5.17;2.93;;;26.20;67.10;;;;;;4927076;28;20424;-69
2023/07/04 13:31:23;;;;;;;3.57;3.20;;;26.30;67.60;;;;;;4931483;29;20458;-72
2023/07/04 13:33:52;;;;;;;7.53;3.97;;;26.50;66.40;;;;;;4925779;29;21180;-71
2023/07/04 13:36:21;;;;;;;7.07;2.90;;;26.60;65.70;;;;;;4928833;29;20429;-71
2023/07/04 13:38:48;;;;;;;15.83;3.83;;;26.70;66.20;;;;;;4934913;29;20439;-70
2023/07/04 13:41:15;;;;;;;8.00;2.77;;;26.70;65.20;;;;;;4927436;29;20713;-71
2023/07/04 13:43:43;;;;;;;3.90;3.47;;;26.70;65.90;;;;;;4927686;29;20436;-72
2023/07/04 13:46:08;;;;;;;6.00;3.67;;;26.70;64.90;;;;;;4913877;29;20421;-75
2023/07/04 13:48:34;;;;;;;3.30;2.93;;;26.70;64.30;;;;;;4917579;29;20427;-69
2023/07/04 13:51:00;;;;;;;5.30;3.80;;;26.70;64.70;;;;;;4941499;28;20700;-72
2023/07/04 13:53:26;;;;;;;4.17;2.90;;;26.80;64.50;;;;;;4929197;29;20258;-69
2023/07/04 13:55:53;;;;;;;2.77;2.23;;;27.00;64.90;;;;;;4938253;29;20472;-69
2023/07/04 13:58:20;;;;;;;5.43;3.07;;;27.10;64.60;;;;;;4925369;29;20424;-69
2023/07/04 14:00:46;;;;;;;3.93;2.73;;;27.10;64.30;;;;;;4922743;29;20976;-70
2023/07/04 14:03:12;;;;;;;7.23;3.30;;;26.90;64.30;;;;;;4943922;28;20431;-70
2023/07/04 14:05:39;;;;;;;7.27;3.90;;;26.80;64.30;;;;;;4944202;28;20416;-69
2023/07/04 14:08:06;;;;;;;3.90;2.93;;;26.90;65.00;;;;;;4935885;29;20187;-71
2023/07/04 14:10:32;;;;;;;4.00;2.40;;;27.00;64.60;;;;;;4921029;29;20810;-69
2023/07/04 14:12:59;;;;;;;7.13;2.83;;;27.10;64.50;;;;;;4932163;29;20431;-70
2023/07/04 14:15:25;;;;;;;8.60;2.70;;;27.20;64.80;;;;;;4926323;29;20465;-71
2023/07/04 14:17:50;;;;;;;6.00;2.90;;;27.40;64.60;;;;;;4936182;29;20486;-70
2023/07/04 14:20:16;;;;;;;8.07;3.47;;;27.40;63.40;;;;;;4921555;28;20173;-71
2023/07/04 14:22:42;;;;;;;4.33;4.00;;;27.40;63.20;;;;;;4945395;28;20207;-69
2023/07/04 14:25:09;;;;;;;4.10;3.10;;;27.40;63.50;;;;;;4926909;29;20334;-72
2023/07/04 14:27:36;;;;;;;5.90;3.30;;;27.50;63.50;;;;;;4925134;29;20187;-71
2023/07/04 14:30:03;;;;;;;4.17;2.60;;;27.30;63.60;;;;;;4920016;29;20435;-70
2023/07/04 14:32:29;;;;;;;10.77;4.00;;;27.40;63.50;;;;;;4932394;29;20440;-70
2023/07/04 14:34:54;;;;;;;5.20;3.40;;;27.40;63.00;;;;;;4923764;29;20474;-69
2023/07/04 14:37:21;;;;;;;7.27;3.53;;;27.60;63.70;;;;;;4936081;28;20519;-70
2023/07/04 14:39:54;;;;;;;6.50;4.33;;;27.60;63.10;;;;;;4919542;29;20260;-73
2023/07/04 14:42:21;;;;;;;5.37;3.43;;;27.60;61.90;;;;;;4944862;29;20522;-72
2023/07/04 14:44:47;;;;;;;3.07;2.87;;;27.60;63.20;;;;;;4943779;28;20439;-73
2023/07/04 14:47:14;;;;;;;7.13;4.40;;;27.70;61.70;;;;;;4933315;28;21366;-70
2023/07/04 14:49:41;;;;;;;10.80;3.70;;;27.70;61.60;;;;;;4930846;29;20883;-72
2023/07/04 14:52:07;;;;;;;8.23;3.80;;;27.70;62.50;;;;;;4926209;29;21024;-69
2023/07/04 14:54:36;;;;;;;4.40;3.60;;;27.70;61.90;;;;;;4927637;29;20463;-71
2023/07/04 14:57:03;;;;;;;9.73;2.30;;;27.80;62.60;;;;;;4917264;29;20486;-70
2023/07/04 14:59:29;;;;;;;4.30;2.80;;;28.00;63.10;;;;;;4928323;29;20432;-71
2023/07/04 15:01:56;;;;;;;3.70;2.50;;;28.10;61.90;;;;;;4925183;29;20443;-70
2023/07/04 15:04:21;;;;;;;5.83;3.27;;;28.10;61.80;;;;;;4931103;28;20459;-70
2023/07/04 15:06:47;;;;;;;4.83;3.30;;;28.10;61.40;;;;;;4924361;29;20961;-70
2023/07/04 15:09:13;;;;;;;3.43;3.07;;;28.10;61.20;;;;;;4935739;29;20187;-71
2023/07/04 15:11:38;;;;;;;5.07;3.47;;;28.10;61.50;;;;;;4921247;29;20581;-71
2023/07/04 15:14:04;;;;;;;7.37;1.97;;;28.10;61.60;;;;;;4925086;29;21007;-71
2023/07/04 15:16:30;;;;;;;6.57;3.70;;;28.10;62.10;;;;;;4918614;29;20216;-69
2023/07/04 15:18:56;;;;;;;4.70;2.70;;;28.10;62.40;;;;;;4921797;29;20180;-70
2023/07/04 15:21:21;;;;;;;15.77;4.53;;;28.00;61.70;;;;;;4942174;28;20192;-70
2023/07/04 15:23:47;;;;;;;9.10;3.37;;;27.90;61.60;;;;;;4928539;29;20570;-72
2023/07/04 15:26:14;;;;;;;3.83;3.13;;;27.80;61.70;;;;;;4928817;29;20644;-74
2023/07/04 15:28:42;;;;;;;8.70;4.90;;;27.80;63.50;;;;;;4927621;29;20176;-71
2023/07/04 15:31:09;;;;;;;3.63;2.13;;;27.90;62.70;;;;;;4918311;29;20440;-77
2023/07/04 15:33:34;;;;;;;7.47;3.30;;;28.00;62.80;;;;;;4913766;29;20431;-71
2023/07/04 15:36:00;;;;;;;3.90;3.30;;;28.10;62.60;;;;;;4925983;29;20472;-70
2023/07/04 15:38:25;;;;;;;3.40;3.20;;;28.20;62.70;;;;;;4935627;29;20193;-68
2023/07/04 15:40:55;;;;;;;6.20;2.80;;;28.30;62.90;;;;;;4925407;29;20196;-69
2023/07/04 15:43:23;;;;;;;8.10;4.07;;;28.30;61.40;;;;;;4928794;29;20199;-72
2023/07/04 15:45:55;;;;;;;6.80;3.80;;;28.30;62.10;;;;;;4926460;29;20424;-70
2023/07/04 15:48:21;;;;;;;7.00;3.50;;;28.20;62.20;;;;;;4933163;29;20870;-71
2023/07/04 15:50:48;;;;;;;6.87;3.10;;;28.20;61.50;;;;;;4945381;28;21054;-70
2023/07/04 15:53:14;;;;;;;10.47;2.63;;;28.20;60.90;;;;;;4928354;29;20223;-69
2023/07/04 15:55:39;;;;;;;7.80;2.93;;;28.20;61.10;;;;;;4928634;29;20483;-70
2023/07/04 15:58:05;;;;;;;6.77;3.50;;;28.10;61.60;;;;;;4932691;29;20547;-68
2023/07/04 16:00:30;;;;;;;12.53;3.70;;;28.00;62.00;;;;;;4933083;29;20700;-70
2023/07/04 16:02:56;;;;;;;3.63;2.63;;;28.00;62.00;;;;;;4935954;29;20179;-71
2023/07/04 16:05:21;;;;;;;5.33;3.40;;;28.00;62.00;;;;;;4941075;28;20787;-69
2023/07/04 16:07:47;;;;;;;5.43;3.63;;;28.10;63.00;;;;;;4923058;29;20198;-71
2023/07/04 16:10:12;;;;;;;6.77;4.63;;;28.20;61.50;;;;;;4914965;29;20267;-70
2023/07/04 16:12:38;;;;;;;5.00;3.27;;;28.00;60.90;;;;;;4936728;29;20184;-70
2023/07/04 16:15:04;;;;;;;5.50;3.07;;;28.00;60.70;;;;;;4942252;29;20683;-70
2023/07/04 16:17:30;;;;;;;3.67;2.70;;;27.90;61.30;;;;;;4928972;29;20189;-68
2023/07/04 16:19:55;;;;;;;5.93;3.50;;;27.90;61.80;;;;;;4918647;29;20432;-70
2023/07/04 16:22:22;;;;;;;4.10;3.40;;;27.70;61.20;;;;;;4937346;29;20252;-69
2023/07/04 16:24:48;;;;;;;10.93;4.90;;;27.60;61.60;;;;;;4926393;29;20194;-69
2023/07/04 16:27:13;;;;;;;6.87;2.97;;;27.50;60.90;;;;;;4940419;29;20748;-74
2023/07/04 16:29:40;;;;;;;4.30;2.57;;;27.40;61.40;;;;;;4935208;29;20227;-70
2023/07/04 16:32:06;;;;;;;3.57;2.87;;;27.40;61.40;;;;;;4923162;29;20208;-69
2023/07/04 16:34:32;;;;;;;5.53;3.10;;;27.40;62.20;;;;;;4940991;28;20460;-69
2023/07/04 16:36:57;;;;;;;8.03;5.07;;;27.40;62.30;;;;;;4936381;28;20428;-70
2023/07/04 16:39:23;;;;;;;3.50;3.20;;;27.40;63.00;;;;;;4929143;29;20271;-70
2023/07/04 16:41:49;;;;;;;7.93;4.40;;;27.40;62.10;;;;;;4938579;29;20211;-69
2023/07/04 16:44:14;;;;;;;3.77;2.83;;;27.40;62.60;;;;;;4920050;29;20183;-68
2023/07/04 16:46:40;;;;;;;5.40;3.50;;;27.30;62.70;;;;;;4930010;29;20431;-72
2023/07/04 16:49:05;;;;;;;8.33;3.00;;;27.30;62.60;;;;;;4926354;29;20272;-69
2023/07/04 16:51:31;;;;;;;5.73;2.93;;;27.10;62.70;;;;;;4939737;28;20227;-69
2023/07/04 16:53:56;;;;;;;3.80;3.20;;;26.90;62.30;;;;;;4933604;29;20684;-69
2023/07/04 16:56:22;;;;;;;6.17;2.70;;;26.80;63.20;;;;;;4925639;28;20545;-70
2023/07/04 16:58:48;;;;;;;3.50;2.63;;;26.70;64.00;;;;;;4941108;28;20264;-69
2023/07/04 17:01:13;;;;;;;7.20;4.33;;;26.50;62.90;;;;;;4926956;29;20583;-69